createdAt,value
2018-12-12T00:00:53.272Z,123.00
2018-12-12T00:03:20.815Z,167.77
2018-12-12T00:05:48.339Z,120.47
2018-12-12T00:08:15.884Z,120.77
2018-12-12T00:10:43.422Z,91.97
2018-12-12T00:13:11.041Z,271.87
2018-12-12T00:15:38.587Z,71.00
2018-12-12T00:18:06.240Z,84.47
2018-12-12T00:20:33.798Z,88.10
2018-12-12T00:23:01.362Z,102.00
2018-12-12T00:25:28.958Z,288.20
2018-12-12T00:27:56.529Z,172.20
2018-12-12T00:30:24.112Z,103.17
2018-12-12T00:32:52.178Z,136.73
2018-12-12T00:35:20.251Z,58.77
2018-12-12T00:37:49.735Z,64.17
2018-12-12T00:40:19.750Z,46.17
2018-12-12T00:42:47.861Z,40.00
2018-12-12T00:45:15.943Z,41.13
2018-12-12T00:47:45.136Z,43.27
2018-12-12T00:50:17.043Z,40.30
2018-12-12T00:52:45.340Z,37.53
2018-12-12T00:55:13.139Z,39.80
2018-12-12T00:57:41.413Z,51.57
2018-12-12T01:00:09.936Z,37.77
2018-12-12T01:02:38.264Z,33.17
2018-12-12T01:05:05.954Z,36.90
2018-12-12T01:07:33.532Z,38.80
2018-12-12T01:10:01.100Z,34.07
2018-12-12T01:12:28.668Z,37.00
2018-12-12T01:14:56.272Z,36.50
2018-12-12T01:17:23.892Z,38.00
2018-12-12T01:19:51.482Z,30.73
2018-12-12T01:22:19.056Z,31.57
2018-12-12T01:24:46.705Z,36.53
2018-12-12T01:27:14.246Z,52.83
2018-12-12T01:29:41.817Z,39.77
2018-12-12T01:32:09.343Z,37.87
2018-12-12T01:34:36.928Z,44.43
2018-12-12T01:37:04.696Z,49.77
2018-12-12T01:39:32.661Z,53.53
2018-12-12T01:42:00.221Z,64.30
2018-12-12T01:44:27.841Z,109.20
2018-12-12T01:46:55.400Z,245.13
2018-12-12T01:49:22.980Z,159.03
2018-12-12T01:51:50.572Z,198.63
2018-12-12T01:54:18.198Z,101.63
2018-12-12T01:56:45.748Z,97.73
2018-12-12T01:59:13.326Z,104.13
2018-12-12T02:01:40.843Z,132.20
2018-12-12T02:04:08.457Z,148.07
2018-12-12T02:06:36.066Z,127.53
2018-12-12T02:09:04.754Z,97.10
2018-12-12T02:11:32.299Z,80.63
2018-12-12T02:13:59.849Z,94.90
2018-12-12T02:16:27.426Z,118.33
2018-12-12T02:18:55.188Z,94.00
2018-12-12T02:21:22.806Z,107.00
2018-12-12T02:23:50.379Z,175.50
2018-12-12T02:26:17.950Z,118.90
2018-12-12T02:28:45.518Z,170.57
2018-12-12T02:31:13.207Z,97.93
2018-12-12T02:33:40.788Z,106.60
2018-12-12T02:36:08.355Z,69.67
2018-12-12T02:38:35.916Z,63.20
2018-12-12T02:41:03.495Z,46.60
2018-12-12T02:43:31.054Z,64.63
2018-12-12T02:45:58.639Z,50.40
2018-12-12T02:48:26.253Z,109.63
2018-12-12T02:50:53.834Z,393.73
2018-12-12T02:53:21.423Z,56.23
2018-12-12T02:55:49.076Z,289.27
2018-12-12T02:58:16.622Z,325.53
2018-12-12T03:00:44.169Z,97.90
2018-12-12T03:03:11.713Z,387.60
2018-12-12T03:05:39.288Z,331.17
2018-12-12T03:08:06.913Z,170.23
2018-12-12T03:10:34.497Z,138.73
2018-12-12T03:13:02.060Z,141.37
2018-12-12T03:15:29.682Z,65.20
2018-12-12T03:17:57.210Z,166.53
2018-12-12T03:20:24.882Z,541.10
2018-12-12T03:22:52.494Z,189.40
2018-12-12T03:25:20.059Z,96.50
2018-12-12T03:27:47.666Z,68.03
2018-12-12T03:30:15.213Z,130.83
2018-12-12T03:32:42.773Z,109.83
2018-12-12T03:35:10.331Z,237.53
2018-12-12T03:37:37.910Z,274.40
2018-12-12T03:40:05.981Z,325.57
2018-12-12T03:42:34.008Z,222.87
2018-12-12T03:45:01.566Z,145.03
2018-12-12T03:47:29.160Z,172.50
2018-12-12T03:49:56.701Z,262.43
2018-12-12T03:52:24.288Z,83.03
2018-12-12T03:54:51.837Z,206.93
2018-12-12T03:57:19.396Z,76.20
2018-12-12T03:59:46.936Z,162.97
2018-12-12T04:02:14.589Z,154.63
2018-12-12T04:04:42.153Z,289.63
2018-12-12T04:07:09.736Z,92.67
2018-12-12T04:09:37.279Z,73.10
2018-12-12T04:12:04.852Z,50.80
2018-12-12T04:14:32.381Z,85.40
2018-12-12T04:17:00.088Z,128.53
2018-12-12T04:19:27.641Z,130.23
2018-12-12T04:21:55.216Z,108.77
2018-12-12T04:24:24.807Z,131.43
2018-12-12T04:26:52.418Z,108.40
2018-12-12T04:29:19.963Z,132.07
2018-12-12T04:31:47.566Z,129.37
2018-12-12T04:34:15.191Z,75.13
2018-12-12T04:36:42.883Z,77.20
2018-12-12T04:39:10.501Z,164.80
2018-12-12T04:41:38.168Z,176.40
2018-12-12T04:44:05.788Z,63.63
2018-12-12T04:46:33.377Z,92.17
2018-12-12T04:49:01.029Z,103.37
2018-12-12T04:51:28.556Z,80.67
2018-12-12T04:53:56.565Z,165.57
2018-12-12T04:56:24.159Z,128.43
2018-12-12T04:58:52.564Z,103.73
2018-12-12T05:01:20.242Z,118.37
2018-12-12T05:03:48.326Z,182.10
2018-12-12T05:06:16.024Z,82.93
2018-12-12T05:08:43.618Z,90.63
2018-12-12T05:11:11.334Z,54.13
2018-12-12T05:13:38.971Z,90.33
2018-12-12T05:16:06.531Z,38.20
2018-12-12T05:18:34.227Z,46.30
2018-12-12T05:21:01.800Z,34.33
2018-12-12T05:23:29.411Z,48.67
2018-12-12T05:25:56.983Z,80.70
2018-12-12T05:28:24.535Z,78.60
2018-12-12T05:30:52.453Z,66.37
2018-12-12T05:33:20.056Z,126.93
2018-12-12T05:35:47.564Z,66.77
2018-12-12T05:38:19.274Z,100.83
2018-12-12T05:40:46.860Z,114.33
2018-12-12T05:43:14.483Z,68.53
2018-12-12T05:45:42.287Z,153.27
2018-12-12T05:48:09.821Z,106.10
2018-12-12T05:50:37.341Z,71.40
2018-12-12T05:53:04.988Z,50.10
2018-12-12T05:55:32.543Z,93.17
2018-12-12T05:58:00.066Z,40.70
2018-12-12T06:00:27.610Z,95.07
2018-12-12T06:02:55.124Z,33.90
2018-12-12T06:05:22.671Z,38.53
2018-12-12T06:07:50.290Z,79.13
2018-12-12T06:10:17.847Z,47.00
2018-12-12T06:12:45.648Z,51.27
2018-12-12T06:15:13.206Z,156.43
2018-12-12T06:17:40.721Z,86.10
2018-12-12T06:20:08.468Z,42.13
2018-12-12T06:22:37.771Z,71.33
2018-12-12T06:25:05.829Z,161.90
2018-12-12T06:27:33.378Z,37.50
2018-12-12T06:30:00.920Z,46.90
2018-12-12T06:32:29.809Z,62.23
2018-12-12T06:34:57.378Z,51.90
2018-12-12T06:37:24.879Z,29.20
2018-12-12T06:39:52.423Z,65.60
2018-12-12T06:42:19.924Z,40.57
2018-12-12T06:44:47.476Z,95.13
2018-12-12T06:47:15.325Z,351.87
2018-12-12T06:49:42.863Z,39.70
2018-12-12T06:52:10.387Z,37.53
2018-12-12T06:54:37.920Z,62.10
2018-12-12T06:57:05.430Z,47.13
2018-12-12T06:59:32.969Z,78.63
2018-12-12T07:02:00.679Z,176.43
2018-12-12T07:04:28.210Z,113.17
2018-12-12T07:06:56.620Z,38.30
2018-12-12T07:09:24.180Z,111.33
2018-12-12T07:11:51.693Z,301.53
2018-12-12T07:14:19.198Z,265.77
2018-12-12T07:16:47.766Z,172.57
2018-12-12T07:19:15.272Z,147.77
2018-12-12T07:21:42.809Z,64.30
2018-12-12T07:24:10.314Z,92.90
2018-12-12T07:26:37.875Z,52.80
2018-12-12T07:29:05.400Z,72.07
2018-12-12T07:31:32.941Z,58.27
2018-12-12T07:34:01.359Z,104.63
2018-12-12T07:36:29.132Z,61.13
2018-12-12T07:38:56.646Z,184.57
2018-12-12T07:41:24.668Z,253.97
2018-12-12T07:43:52.190Z,129.43
2018-12-12T07:46:20.907Z,59.90
2018-12-12T07:48:48.410Z,125.27
2018-12-12T07:51:15.950Z,64.17
2018-12-12T07:53:43.464Z,37.13
2018-12-12T07:56:10.995Z,56.97
2018-12-12T07:58:38.492Z,67.80
2018-12-12T08:01:06.031Z,122.07
2018-12-12T08:03:33.539Z,47.47
2018-12-12T08:06:01.075Z,163.67
2018-12-12T08:08:28.585Z,126.93
2018-12-12T08:10:56.129Z,171.23
2018-12-12T08:13:23.651Z,89.67
2018-12-12T08:15:51.192Z,49.97
2018-12-12T08:18:18.704Z,202.60
2018-12-12T08:20:46.260Z,187.27
2018-12-12T08:23:14.165Z,66.40
2018-12-12T08:25:41.891Z,126.17
2018-12-12T08:28:09.420Z,57.97
2018-12-12T08:30:37.010Z,101.43
2018-12-12T08:33:10.878Z,105.17
2018-12-12T08:35:34.067Z,83.10
2018-12-12T08:38:01.602Z,61.63
2018-12-12T08:40:29.219Z,47.93
2018-12-12T08:42:56.727Z,62.47
2018-12-12T08:45:24.251Z,86.70
2018-12-12T08:47:51.813Z,70.80
2018-12-12T08:50:19.494Z,66.67
2018-12-12T08:52:47.032Z,64.17
2018-12-12T08:55:17.664Z,245.07
2018-12-12T08:57:44.106Z,92.03
2018-12-12T09:00:11.610Z,46.90
2018-12-12T09:02:39.149Z,45.77
2018-12-12T09:05:06.658Z,94.47
2018-12-12T09:07:34.206Z,89.03
2018-12-12T09:10:01.731Z,71.53
2018-12-12T09:12:29.278Z,64.67
2018-12-12T09:14:57.344Z,44.47
2018-12-12T09:17:24.901Z,61.57
2018-12-12T09:19:52.412Z,57.70
2018-12-12T09:22:19.948Z,241.77
2018-12-12T09:24:47.455Z,184.30
2018-12-12T09:27:14.985Z,38.10
2018-12-12T09:29:42.486Z,57.77
2018-12-12T09:32:10.032Z,236.00
2018-12-12T09:34:37.542Z,423.83
2018-12-12T09:37:05.090Z,126.60
2018-12-12T09:39:32.600Z,53.33
2018-12-12T09:42:00.126Z,62.37
2018-12-12T09:44:27.730Z,100.77
2018-12-12T09:46:55.270Z,110.67
2018-12-12T09:49:22.785Z,65.23
2018-12-12T09:51:50.314Z,96.30
2018-12-12T09:54:17.826Z,45.77
2018-12-12T09:56:45.378Z,85.37
2018-12-12T09:59:12.890Z,62.17
2018-12-12T10:01:40.402Z,53.93
2018-12-12T10:04:07.947Z,114.17
2018-12-12T10:06:35.451Z,66.40
2018-12-12T10:09:03.387Z,77.33
2018-12-12T10:11:30.901Z,151.03
2018-12-12T10:13:58.435Z,50.70
2018-12-12T10:16:25.954Z,116.40
2018-12-12T10:18:53.494Z,103.70
2018-12-12T10:21:21.007Z,81.70
2018-12-12T10:23:48.545Z,71.27
2018-12-12T10:26:16.063Z,56.17
2018-12-12T10:28:44.221Z,46.37
2018-12-12T10:31:12.122Z,70.10
2018-12-12T10:33:39.733Z,68.83
2018-12-12T10:36:07.245Z,53.93
2018-12-12T10:38:34.801Z,54.17
2018-12-12T10:41:02.310Z,53.37
2018-12-12T10:43:29.853Z,56.23
2018-12-12T10:45:57.365Z,69.97
2018-12-12T10:48:24.911Z,56.00
2018-12-12T10:50:52.422Z,54.47
2018-12-12T10:53:19.959Z,42.23
2018-12-12T10:55:47.464Z,55.43
2018-12-12T10:58:15.012Z,49.03
2018-12-12T11:00:44.521Z,41.97
2018-12-12T11:03:17.663Z,44.33
2018-12-12T11:05:45.227Z,36.90
2018-12-12T11:08:12.808Z,39.33
2018-12-12T11:10:40.808Z,41.67
2018-12-12T11:13:08.339Z,43.87
2018-12-12T11:15:35.844Z,42.93
2018-12-12T11:18:03.388Z,58.83
2018-12-12T11:20:30.905Z,47.57
2018-12-12T11:22:58.444Z,47.20
2018-12-12T11:25:25.961Z,53.03
2018-12-12T11:27:53.487Z,52.83
2018-12-12T11:30:20.983Z,44.60
2018-12-12T11:32:48.518Z,43.33
2018-12-12T11:35:16.026Z,42.00
2018-12-12T11:37:43.533Z,44.50
2018-12-12T11:40:11.098Z,46.60
2018-12-12T11:42:38.687Z,44.33
2018-12-12T11:45:06.308Z,52.70
2018-12-12T11:47:33.833Z,44.10
2018-12-12T11:50:01.370Z,42.30
2018-12-12T11:52:28.876Z,40.87
2018-12-12T11:54:56.404Z,36.90
2018-12-12T11:57:24.423Z,39.27
2018-12-12T11:59:51.954Z,34.90
2018-12-12T12:02:19.464Z,35.83
2018-12-12T12:04:47.005Z,39.53
2018-12-12T12:07:14.507Z,35.37
2018-12-12T12:09:42.039Z,42.50
2018-12-12T12:12:09.538Z,32.50
2018-12-12T12:14:37.079Z,39.13
2018-12-12T12:17:04.702Z,37.50
2018-12-12T12:19:32.263Z,37.33
2018-12-12T12:21:59.854Z,34.60
2018-12-12T12:24:27.384Z,37.20
2018-12-12T12:26:54.888Z,35.30
2018-12-12T12:29:22.507Z,35.90
2018-12-12T12:31:50.095Z,35.83
2018-12-12T12:34:17.747Z,36.03
2018-12-12T12:36:46.046Z,39.33
2018-12-12T12:39:13.585Z,42.53
2018-12-12T12:41:41.092Z,34.90
2018-12-12T12:44:08.626Z,32.87
2018-12-12T12:46:36.126Z,41.53
2018-12-12T12:49:03.731Z,43.70
2018-12-12T12:51:31.331Z,47.73
2018-12-12T12:54:00.212Z,41.27
2018-12-12T12:56:27.739Z,53.43
2018-12-12T12:58:55.272Z,46.93
2018-12-12T13:01:22.781Z,41.23
2018-12-12T13:03:50.437Z,40.97
2018-12-12T13:06:19.369Z,50.77
2018-12-12T13:08:47.018Z,55.70
2018-12-12T13:11:14.965Z,59.87
2018-12-12T13:13:43.108Z,65.77
2018-12-12T13:16:10.766Z,63.20
2018-12-12T13:18:38.353Z,76.90
2018-12-12T13:21:05.998Z,75.67
2018-12-12T13:23:33.520Z,76.60
2018-12-12T13:26:01.119Z,73.87
2018-12-12T13:28:28.867Z,79.37
2018-12-12T13:30:56.553Z,76.07
2018-12-12T13:33:24.124Z,79.27
2018-12-12T13:35:51.773Z,76.30
2018-12-12T13:38:20.912Z,81.57
2018-12-12T13:40:48.574Z,75.63
2018-12-12T13:43:16.162Z,73.10
2018-12-12T13:45:47.722Z,89.50
2018-12-12T13:48:15.411Z,111.57
2018-12-12T13:50:42.979Z,73.40
2018-12-12T13:53:13.959Z,69.33
2018-12-12T13:55:43.245Z,72.53
2018-12-12T13:58:10.867Z,70.37
2018-12-12T14:00:39.181Z,76.03
2018-12-12T14:03:07.047Z,76.00
2018-12-12T14:05:34.711Z,83.40
2018-12-12T14:08:02.276Z,68.33
2018-12-12T14:10:30.084Z,61.57
2018-12-12T14:12:57.656Z,76.50
2018-12-12T14:15:25.264Z,75.23
2018-12-12T14:17:52.803Z,81.90
2018-12-12T14:20:20.411Z,85.23
2018-12-12T14:22:48.036Z,85.30
2018-12-12T14:25:15.669Z,79.23
2018-12-12T14:27:43.481Z,81.67
2018-12-12T14:30:11.062Z,81.27
2018-12-12T14:32:38.615Z,84.13
2018-12-12T14:35:06.216Z,82.20
2018-12-12T14:37:33.968Z,88.10
2018-12-12T14:40:01.592Z,91.47
2018-12-12T14:42:29.140Z,74.33
2018-12-12T14:44:56.751Z,84.90
2018-12-12T14:47:24.257Z,85.90
2018-12-12T14:49:51.904Z,92.40
2018-12-12T14:52:21.044Z,93.93
2018-12-12T14:54:48.611Z,83.40
2018-12-12T14:57:16.282Z,68.27
2018-12-12T14:59:43.897Z,44.30
2018-12-12T15:02:12.002Z,41.33
2018-12-12T15:04:39.612Z,38.77
2018-12-12T15:07:07.268Z,33.70
2018-12-12T15:09:35.020Z,35.07
2018-12-12T15:12:02.830Z,39.43
2018-12-12T15:14:30.399Z,28.43
2018-12-12T15:17:01.268Z,25.63
2018-12-12T15:19:30.973Z,24.70
2018-12-12T15:21:58.724Z,19.97
2018-12-12T15:24:26.309Z,21.03
2018-12-12T15:26:53.859Z,20.10
2018-12-12T15:29:21.420Z,15.53
2018-12-12T15:31:48.978Z,16.17
2018-12-12T15:34:16.739Z,16.03
2018-12-12T15:36:45.272Z,15.77
2018-12-12T15:39:13.035Z,19.83
2018-12-12T15:41:40.742Z,21.17
2018-12-12T15:44:08.357Z,18.07
2018-12-12T15:46:36.980Z,19.47
2018-12-12T15:49:04.628Z,16.27
2018-12-12T15:51:32.211Z,16.93
2018-12-12T15:53:59.759Z,15.27
2018-12-12T15:56:27.471Z,15.47
2018-12-12T15:58:55.107Z,15.17
2018-12-12T16:01:22.890Z,20.40
2018-12-12T16:03:50.420Z,21.33
2018-12-12T16:06:18.012Z,17.63
2018-12-12T16:08:45.591Z,14.20
2018-12-12T16:11:19.541Z,13.07
2018-12-12T16:13:47.214Z,13.23
2018-12-12T16:16:28.693Z,17.77
2018-12-12T16:19:01.120Z,26.93
2018-12-12T16:21:31.955Z,33.00
2018-12-12T16:24:06.779Z,28.07
2018-12-12T16:26:37.067Z,19.70
2018-12-12T16:29:07.800Z,19.23
2018-12-12T16:31:39.483Z,16.73
2018-12-12T16:34:09.332Z,17.93
2018-12-12T16:36:38.184Z,21.30
2018-12-12T16:39:08.010Z,18.70
2018-12-12T16:41:39.610Z,18.73
2018-12-12T16:44:09.518Z,19.13
2018-12-12T16:46:40.110Z,21.00
2018-12-12T16:49:10.919Z,18.80
2018-12-12T16:51:43.432Z,15.30
2018-12-12T16:54:11.519Z,16.30
2018-12-12T16:56:39.881Z,14.33
2018-12-12T16:59:07.473Z,18.27
2018-12-12T17:01:36.482Z,17.00
2018-12-12T17:04:04.682Z,15.17
2018-12-12T17:06:32.876Z,14.07
2018-12-12T17:09:00.898Z,14.50
2018-12-12T17:11:29.139Z,17.57
2018-12-12T17:14:00.282Z,16.60
2018-12-12T17:16:28.362Z,13.50
2018-12-12T17:18:56.323Z,19.27
2018-12-12T17:21:31.047Z,17.40
2018-12-12T17:23:59.032Z,15.63
2018-12-12T17:26:28.596Z,14.90
2018-12-12T17:28:56.718Z,33.97
2018-12-12T17:31:25.650Z,24.67
2018-12-12T17:33:53.259Z,18.23
2018-12-12T17:36:20.879Z,14.93
2018-12-12T17:38:48.497Z,14.60
2018-12-12T17:41:17.866Z,17.33
2018-12-12T17:43:46.450Z,16.73
2018-12-12T17:46:14.193Z,14.93
2018-12-12T17:48:41.856Z,22.60
2018-12-12T17:51:09.469Z,19.33
2018-12-12T17:53:37.086Z,16.27
2018-12-12T17:56:04.723Z,15.23
2018-12-12T17:58:32.330Z,19.93
2018-12-12T18:01:00.348Z,17.10
2018-12-12T18:03:28.099Z,18.80
2018-12-12T18:05:55.868Z,17.77
2018-12-12T18:08:23.642Z,16.50
2018-12-12T18:10:55.138Z,16.97
2018-12-12T18:13:26.582Z,19.23
2018-12-12T18:15:55.501Z,17.00
2018-12-12T18:18:23.501Z,17.83
2018-12-12T18:20:54.975Z,16.30
2018-12-12T18:23:24.592Z,15.17
2018-12-12T18:25:55.887Z,15.00
2018-12-12T18:28:25.292Z,15.93
2018-12-12T18:33:29.209Z,18.50
2018-12-12T18:35:57.409Z,15.53
2018-12-12T18:38:26.630Z,20.27
2018-12-12T18:40:54.459Z,21.10
2018-12-12T18:43:22.213Z,24.73
2018-12-12T18:45:50.425Z,25.60
2018-12-12T18:48:18.272Z,24.87
2018-12-12T18:50:46.179Z,27.83
2018-12-12T18:53:14.127Z,28.63
2018-12-12T18:55:41.865Z,27.13
2018-12-12T18:58:09.656Z,31.57
2018-12-12T19:00:37.650Z,32.30
2018-12-12T19:03:05.693Z,35.83
2018-12-12T19:05:37.095Z,28.77
2018-12-12T19:08:04.814Z,33.67
2018-12-12T19:10:33.576Z,38.30
2018-12-12T19:13:03.849Z,39.50
2018-12-12T19:15:31.601Z,30.20
2018-12-12T19:17:59.331Z,30.70
2018-12-12T19:20:28.899Z,31.53
2018-12-12T19:22:57.746Z,36.63
2018-12-12T19:25:25.721Z,27.70
2018-12-12T19:27:53.224Z,29.20
2018-12-12T19:30:20.772Z,23.93
2018-12-12T19:32:48.271Z,25.77
2018-12-12T19:35:15.809Z,27.43
2018-12-12T19:37:43.792Z,28.70
2018-12-12T19:40:12.050Z,26.27
2018-12-12T19:42:40.093Z,27.90
2018-12-12T19:45:08.768Z,26.33
2018-12-12T19:47:36.648Z,27.50
2018-12-12T19:50:05.678Z,30.70
2018-12-12T19:52:33.241Z,23.60
2018-12-12T19:55:01.014Z,23.30
2018-12-12T19:57:30.680Z,20.27
2018-12-12T19:59:58.424Z,23.13
2018-12-12T20:02:26.288Z,25.90
2018-12-12T20:04:54.569Z,19.83
2018-12-12T20:07:22.150Z,21.47
2018-12-12T20:09:49.968Z,21.30
2018-12-12T20:12:17.649Z,23.20
2018-12-12T20:14:46.048Z,24.70
2018-12-12T20:17:13.763Z,24.13
2018-12-12T20:19:41.347Z,22.03
2018-12-12T20:22:08.940Z,23.03
2018-12-12T20:24:36.728Z,20.77
2018-12-12T20:27:04.429Z,17.77
2018-12-12T20:29:32.004Z,21.17
2018-12-12T20:31:59.679Z,19.70
2018-12-12T20:34:27.189Z,24.80
2018-12-12T20:36:55.615Z,22.90
2018-12-12T20:39:23.459Z,30.10
2018-12-12T20:41:50.995Z,34.73
2018-12-12T20:44:18.498Z,28.83
2018-12-12T20:46:46.025Z,26.43
2018-12-12T20:49:13.522Z,27.17
2018-12-12T20:51:41.168Z,23.90
2018-12-12T20:54:08.672Z,30.93
2018-12-12T20:56:36.198Z,32.50
2018-12-12T20:59:07.590Z,45.27
2018-12-12T21:01:36.902Z,53.70
2018-12-12T21:04:04.648Z,45.47
2018-12-12T21:06:32.237Z,37.40
2018-12-12T21:09:00.055Z,35.13
2018-12-12T21:11:27.731Z,33.00
2018-12-12T21:13:55.375Z,33.70
2018-12-12T21:16:23.148Z,41.23
2018-12-12T21:18:50.755Z,36.90
2018-12-12T21:21:18.348Z,33.87
2018-12-12T21:23:45.962Z,27.27
2018-12-12T21:26:13.914Z,25.57
2018-12-12T21:28:41.480Z,25.23
2018-12-12T21:31:09.047Z,29.97
2018-12-12T21:33:36.625Z,68.67
2018-12-12T21:36:04.748Z,106.63
2018-12-12T21:38:32.318Z,60.40
2018-12-12T21:40:59.870Z,36.03
2018-12-12T21:43:27.442Z,21.17
2018-12-12T21:45:55.068Z,18.60
2018-12-12T21:48:22.687Z,15.97
2018-12-12T21:50:50.244Z,13.73
2018-12-12T21:53:17.914Z,14.67
2018-12-12T21:55:45.474Z,16.40
2018-12-12T21:58:13.053Z,14.70
2018-12-12T22:00:40.583Z,12.77
2018-12-12T22:03:08.137Z,14.10
2018-12-12T22:05:35.677Z,13.47
2018-12-12T22:08:04.425Z,12.33
2018-12-12T22:10:31.949Z,12.97
2018-12-12T22:12:59.538Z,13.20
2018-12-12T22:15:27.093Z,12.87
2018-12-12T22:17:54.662Z,13.00
2018-12-12T22:20:22.191Z,13.37
2018-12-12T22:22:49.758Z,12.53
2018-12-12T22:25:17.337Z,12.60
2018-12-12T22:27:44.977Z,14.07
2018-12-12T22:30:12.542Z,13.17
2018-12-12T22:32:40.101Z,11.93
2018-12-12T22:35:07.682Z,11.63
2018-12-12T22:37:35.265Z,12.70
2018-12-12T22:40:02.823Z,14.10
2018-12-12T22:42:30.399Z,15.27
2018-12-12T22:44:57.960Z,14.70
2018-12-12T22:47:26.063Z,14.17
2018-12-12T22:49:56.021Z,13.23
2018-12-12T22:52:23.976Z,12.17
2018-12-12T22:54:51.556Z,12.57
2018-12-12T22:57:19.112Z,11.10
2018-12-12T22:59:46.629Z,12.30
2018-12-12T23:02:14.203Z,13.30
2018-12-12T23:04:44.544Z,11.87
2018-12-12T23:07:12.893Z,12.40
2018-12-12T23:12:32.836Z,11.53
2018-12-12T23:15:05.432Z,11.43
2018-12-12T23:17:36.445Z,11.40
2018-12-12T23:20:11.117Z,11.80
2018-12-12T23:22:39.588Z,12.97
2018-12-12T23:25:07.887Z,10.63
2018-12-12T23:27:36.219Z,13.90
2018-12-12T23:32:57.317Z,11.80
2018-12-12T23:35:26.998Z,21.10
2018-12-12T23:37:55.865Z,10.47
2018-12-12T23:40:24.081Z,10.13
2018-12-12T23:42:51.684Z,9.43
2018-12-12T23:45:19.400Z,10.33
2018-12-12T23:47:46.956Z,10.90
2018-12-12T23:50:14.520Z,9.90
2018-12-12T23:52:46.823Z,10.10
2018-12-12T23:55:19.749Z,10.97
2018-12-12T23:57:47.462Z,10.00
